sensor_id;sensor_type;location;lat;lon;timestamp;temperature;humidity
14144;DHT22;7152;48.348;10.980;2023-07-09T00:02:24;21.40;95.00
14144;DHT22;7152;48.348;10.980;2023-07-09T00:04:50;21.30;95.00
14144;DHT22;7152;48.348;10.980;2023-07-09T00:07:27;21.30;95.00
14144;DHT22;7152;48.348;10.980;2023-07-09T00:09:54;21.30;95.00
14144;DHT22;7152;48.348;10.980;2023-07-09T00:12:20;21.30;94.80
14144;DHT22;7152;48.348;10.980;2023-07-09T00:14:47;21.30;94.80
14144;DHT22;7152;48.348;10.980;2023-07-09T00:17:29;21.30;94.80
14144;DHT22;7152;48.348;10.980;2023-07-09T00:19:57;21.30;95.00
14144;DHT22;7152;48.348;10.980;2023-07-09T00:22:23;21.20;95.00
14144;DHT22;7152;48.348;10.980;2023-07-09T00:24:50;21.20;95.20
14144;DHT22;7152;48.348;10.980;2023-07-09T00:27:19;21.10;95.40
14144;DHT22;7152;48.348;10.980;2023-07-09T00:29:45;21.10;95.40
14144;DHT22;7152;48.348;10.980;2023-07-09T00:32:13;21.10;95.40
14144;DHT22;7152;48.348;10.980;2023-07-09T00:34:43;21.00;95.40
14144;DHT22;7152;48.348;10.980;2023-07-09T00:37:15;21.00;95.50
14144;DHT22;7152;48.348;10.980;2023-07-09T00:39:42;21.00;95.70
14144;DHT22;7152;48.348;10.980;2023-07-09T00:42:15;20.90;95.70
14144;DHT22;7152;48.348;10.980;2023-07-09T00:44:50;20.90;95.90
14144;DHT22;7152;48.348;10.980;2023-07-09T00:50:34;20.80;96.30
14144;DHT22;7152;48.348;10.980;2023-07-09T00:53:10;20.70;96.90
14144;DHT22;7152;48.348;10.980;2023-07-09T00:55:39;20.70;97.00
14144;DHT22;7152;48.348;10.980;2023-07-09T00:58:10;20.70;96.90
14144;DHT22;7152;48.348;10.980;2023-07-09T01:00:44;20.60;97.10
14144;DHT22;7152;48.348;10.980;2023-07-09T01:03:28;20.50;97.40
14144;DHT22;7152;48.348;10.980;2023-07-09T01:05:56;20.50;97.90
14144;DHT22;7152;48.348;10.980;2023-07-09T01:08:23;20.40;98.20
14144;DHT22;7152;48.348;10.980;2023-07-09T01:10:49;20.30;98.70
14144;DHT22;7152;48.348;10.980;2023-07-09T01:13:17;20.20;99.30
14144;DHT22;7152;48.348;10.980;2023-07-09T01:15:46;20.20;99.90
14144;DHT22;7152;48.348;10.980;2023-07-09T01:18:12;20.10;99.90
14144;DHT22;7152;48.348;10.980;2023-07-09T01:20:40;20.00;99.90
14144;DHT22;7152;48.348;10.980;2023-07-09T01:23:06;19.90;99.90
14144;DHT22;7152;48.348;10.980;2023-07-09T01:25:33;19.80;99.90
14144;DHT22;7152;48.348;10.980;2023-07-09T01:27:59;19.80;99.90
14144;DHT22;7152;48.348;10.980;2023-07-09T01:30:31;19.80;99.90
14144;DHT22;7152;48.348;10.980;2023-07-09T01:32:59;19.80;99.90
14144;DHT22;7152;48.348;10.980;2023-07-09T01:35:29;19.80;99.90
14144;DHT22;7152;48.348;10.980;2023-07-09T01:37:55;19.80;99.90
14144;DHT22;7152;48.348;10.980;2023-07-09T01:40:23;19.80;99.90
14144;DHT22;7152;48.348;10.980;2023-07-09T01:42:51;19.70;99.90
14144;DHT22;7152;48.348;10.980;2023-07-09T01:45:17;19.70;99.90
14144;DHT22;7152;48.348;10.980;2023-07-09T01:47:43;19.70;99.90
14144;DHT22;7152;48.348;10.980;2023-07-09T01:50:10;19.60;99.90
14144;DHT22;7152;48.348;10.980;2023-07-09T01:52:38;19.60;99.90
14144;DHT22;7152;48.348;10.980;2023-07-09T01:55:05;19.60;99.90
14144;DHT22;7152;48.348;10.980;2023-07-09T01:57:31;19.60;99.90
14144;DHT22;7152;48.348;10.980;2023-07-09T02:00:06;19.50;99.90
14144;DHT22;7152;48.348;10.980;2023-07-09T02:02:44;19.50;99.90
14144;DHT22;7152;48.348;10.980;2023-07-09T02:05:13;19.50;99.90
14144;DHT22;7152;48.348;10.980;2023-07-09T02:07:40;19.50;99.90
14144;DHT22;7152;48.348;10.980;2023-07-09T02:10:06;19.50;99.90
14144;DHT22;7152;48.348;10.980;2023-07-09T02:12:32;19.50;99.90
14144;DHT22;7152;48.348;10.980;2023-07-09T02:14:58;19.40;99.90
14144;DHT22;7152;48.348;10.980;2023-07-09T02:17:24;19.40;99.90
14144;DHT22;7152;48.348;10.980;2023-07-09T02:19:51;19.40;99.90
14144;DHT22;7152;48.348;10.980;2023-07-09T02:22:17;19.40;99.90
14144;DHT22;7152;48.348;10.980;2023-07-09T02:24:44;19.30;99.90
14144;DHT22;7152;48.348;10.980;2023-07-09T02:27:14;19.20;99.90
14144;DHT22;7152;48.348;10.980;2023-07-09T02:29:40;19.20;99.90
14144;DHT22;7152;48.348;10.980;2023-07-09T02:32:07;19.10;99.90
14144;DHT22;7152;48.348;10.980;2023-07-09T02:34:33;19.10;99.90
14144;DHT22;7152;48.348;10.980;2023-07-09T02:37:01;19.00;99.90
14144;DHT22;7152;48.348;10.980;2023-07-09T02:39:27;19.00;99.90
14144;DHT22;7152;48.348;10.980;2023-07-09T02:41:53;19.00;99.90
14144;DHT22;7152;48.348;10.980;2023-07-09T02:44:19;19.00;99.90
14144;DHT22;7152;48.348;10.980;2023-07-09T02:46:46;18.90;99.90
14144;DHT22;7152;48.348;10.980;2023-07-09T02:49:13;18.90;99.90
14144;DHT22;7152;48.348;10.980;2023-07-09T02:51:39;18.80;99.90
14144;DHT22;7152;48.348;10.980;2023-07-09T02:54:06;18.80;99.90
14144;DHT22;7152;48.348;10.980;2023-07-09T02:56:32;18.80;99.90
14144;DHT22;7152;48.348;10.980;2023-07-09T02:58:58;18.80;99.90
14144;DHT22;7152;48.348;10.980;2023-07-09T03:01:24;18.70;99.90
14144;DHT22;7152;48.348;10.980;2023-07-09T03:03:54;18.80;99.90
14144;DHT22;7152;48.348;10.980;2023-07-09T03:06:22;18.70;99.90
14144;DHT22;7152;48.348;10.980;2023-07-09T03:08:48;18.70;99.90
14144;DHT22;7152;48.348;10.980;2023-07-09T03:11:15;18.60;99.90
14144;DHT22;7152;48.348;10.980;2023-07-09T03:13:41;18.60;99.90
14144;DHT22;7152;48.348;10.980;2023-07-09T03:16:07;18.60;99.90
14144;DHT22;7152;48.348;10.980;2023-07-09T03:18:33;18.60;99.90
14144;DHT22;7152;48.348;10.980;2023-07-09T03:20:59;18.60;99.90
14144;DHT22;7152;48.348;10.980;2023-07-09T03:23:25;18.60;99.90
14144;DHT22;7152;48.348;10.980;2023-07-09T03:25:51;18.60;99.90
14144;DHT22;7152;48.348;10.980;2023-07-09T03:28:17;18.50;99.90
14144;DHT22;7152;48.348;10.980;2023-07-09T03:30:47;18.50;99.90
14144;DHT22;7152;48.348;10.980;2023-07-09T03:33:15;18.50;99.90
14144;DHT22;7152;48.348;10.980;2023-07-09T03:35:42;18.50;99.90
14144;DHT22;7152;48.348;10.980;2023-07-09T03:38:09;18.40;99.90
14144;DHT22;7152;48.348;10.980;2023-07-09T03:40:36;18.40;99.90
14144;DHT22;7152;48.348;10.980;2023-07-09T03:43:04;18.40;99.90
14144;DHT22;7152;48.348;10.980;2023-07-09T03:45:30;18.30;99.90
14144;DHT22;7152;48.348;10.980;2023-07-09T03:47:56;18.40;99.90
14144;DHT22;7152;48.348;10.980;2023-07-09T03:50:22;18.30;99.90
14144;DHT22;7152;48.348;10.980;2023-07-09T03:52:48;18.30;99.90
14144;DHT22;7152;48.348;10.980;2023-07-09T03:55:14;18.20;99.90
14144;DHT22;7152;48.348;10.980;2023-07-09T03:57:40;18.30;99.90
14144;DHT22;7152;48.348;10.980;2023-07-09T04:00:07;18.30;99.90
14144;DHT22;7152;48.348;10.980;2023-07-09T04:02:42;18.30;99.90
14144;DHT22;7152;48.348;10.980;2023-07-09T04:05:10;18.30;99.90
14144;DHT22;7152;48.348;10.980;2023-07-09T04:07:36;18.30;99.90
14144;DHT22;7152;48.348;10.980;2023-07-09T04:10:03;18.30;99.90
14144;DHT22;7152;48.348;10.980;2023-07-09T04:12:29;18.30;99.90
14144;DHT22;7152;48.348;10.980;2023-07-09T04:14:55;18.30;99.90
14144;DHT22;7152;48.348;10.980;2023-07-09T04:17:21;18.40;99.90
14144;DHT22;7152;48.348;10.980;2023-07-09T04:19:49;18.40;99.90
14144;DHT22;7152;48.348;10.980;2023-07-09T04:22:15;18.30;99.90
14144;DHT22;7152;48.348;10.980;2023-07-09T04:24:43;18.40;99.90
14144;DHT22;7152;48.348;10.980;2023-07-09T04:27:10;18.40;99.90
14144;DHT22;7152;48.348;10.980;2023-07-09T04:29:35;18.40;99.90
14144;DHT22;7152;48.348;10.980;2023-07-09T04:32:05;18.40;99.90
14144;DHT22;7152;48.348;10.980;2023-07-09T04:34:31;18.40;99.90
14144;DHT22;7152;48.348;10.980;2023-07-09T04:36:57;18.40;99.90
14144;DHT22;7152;48.348;10.980;2023-07-09T04:39:23;18.40;99.90
14144;DHT22;7152;48.348;10.980;2023-07-09T04:41:49;18.40;99.90
14144;DHT22;7152;48.348;10.980;2023-07-09T04:44:15;18.40;99.90
14144;DHT22;7152;48.348;10.980;2023-07-09T04:46:40;18.50;99.90
14144;DHT22;7152;48.348;10.980;2023-07-09T04:49:07;18.50;99.90
14144;DHT22;7152;48.348;10.980;2023-07-09T04:51:32;18.60;99.90
14144;DHT22;7152;48.348;10.980;2023-07-09T04:53:59;18.60;99.90
14144;DHT22;7152;48.348;10.980;2023-07-09T04:56:29;18.70;99.90
14144;DHT22;7152;48.348;10.980;2023-07-09T04:58:56;18.80;99.90
14144;DHT22;7152;48.348;10.980;2023-07-09T05:01:22;18.80;99.90
14144;DHT22;7152;48.348;10.980;2023-07-09T05:03:48;18.90;99.90
14144;DHT22;7152;48.348;10.980;2023-07-09T05:06:14;19.00;99.90
14144;DHT22;7152;48.348;10.980;2023-07-09T05:08:40;19.00;99.90
14144;DHT22;7152;48.348;10.980;2023-07-09T05:11:07;19.00;99.90
14144;DHT22;7152;48.348;10.980;2023-07-09T05:13:33;19.10;99.90
14144;DHT22;7152;48.348;10.980;2023-07-09T05:16:00;19.20;99.90
14144;DHT22;7152;48.348;10.980;2023-07-09T05:18:26;19.20;99.90
14144;DHT22;7152;48.348;10.980;2023-07-09T05:20:51;19.30;99.90
14144;DHT22;7152;48.348;10.980;2023-07-09T05:23:17;19.30;99.90
14144;DHT22;7152;48.348;10.980;2023-07-09T05:25:43;19.30;99.90
14144;DHT22;7152;48.348;10.980;2023-07-09T05:28:09;19.40;99.90
14144;DHT22;7152;48.348;10.980;2023-07-09T05:30:35;19.40;99.90
14144;DHT22;7152;48.348;10.980;2023-07-09T05:33:00;19.50;99.90
14144;DHT22;7152;48.348;10.980;2023-07-09T05:35:27;19.50;99.90
14144;DHT22;7152;48.348;10.980;2023-07-09T05:37:53;19.60;99.90
14144;DHT22;7152;48.348;10.980;2023-07-09T05:40:20;19.70;99.90
14144;DHT22;7152;48.348;10.980;2023-07-09T05:42:48;19.70;99.90
14144;DHT22;7152;48.348;10.980;2023-07-09T05:45:14;19.80;99.90
14144;DHT22;7152;48.348;10.980;2023-07-09T05:47:40;19.80;99.90
14144;DHT22;7152;48.348;10.980;2023-07-09T05:50:07;19.90;99.90
14144;DHT22;7152;48.348;10.980;2023-07-09T05:52:34;20.00;99.90
14144;DHT22;7152;48.348;10.980;2023-07-09T05:55:00;20.10;99.90
14144;DHT22;7152;48.348;10.980;2023-07-09T05:57:29;20.10;99.90
14144;DHT22;7152;48.348;10.980;2023-07-09T05:59:56;20.20;99.90
14144;DHT22;7152;48.348;10.980;2023-07-09T06:02:21;20.20;99.90
14144;DHT22;7152;48.348;10.980;2023-07-09T06:04:48;20.30;99.90
14144;DHT22;7152;48.348;10.980;2023-07-09T06:07:17;20.40;99.90
14144;DHT22;7152;48.348;10.980;2023-07-09T06:09:44;20.40;99.90
14144;DHT22;7152;48.348;10.980;2023-07-09T06:12:11;20.50;99.90
14144;DHT22;7152;48.348;10.980;2023-07-09T06:14:37;20.50;99.90
14144;DHT22;7152;48.348;10.980;2023-07-09T06:17:04;20.60;99.90
14144;DHT22;7152;48.348;10.980;2023-07-09T06:19:29;20.70;99.90
14144;DHT22;7152;48.348;10.980;2023-07-09T06:21:55;20.70;99.90
14144;DHT22;7152;48.348;10.980;2023-07-09T06:24:22;20.80;99.90
14144;DHT22;7152;48.348;10.980;2023-07-09T06:26:48;20.90;99.90
14144;DHT22;7152;48.348;10.980;2023-07-09T06:29:14;21.00;99.90
14144;DHT22;7152;48.348;10.980;2023-07-09T06:31:40;21.10;99.90
14144;DHT22;7152;48.348;10.980;2023-07-09T06:34:08;21.10;99.90
14144;DHT22;7152;48.348;10.980;2023-07-09T06:36:35;21.20;99.90
14144;DHT22;7152;48.348;10.980;2023-07-09T06:39:02;21.30;99.90
14144;DHT22;7152;48.348;10.980;2023-07-09T06:41:28;21.40;99.90
14144;DHT22;7152;48.348;10.980;2023-07-09T06:43:54;21.50;99.90
14144;DHT22;7152;48.348;10.980;2023-07-09T06:46:20;21.60;99.90
14144;DHT22;7152;48.348;10.980;2023-07-09T06:48:46;21.70;99.90
14144;DHT22;7152;48.348;10.980;2023-07-09T06:51:12;21.70;99.90
14144;DHT22;7152;48.348;10.980;2023-07-09T06:53:38;21.80;99.90
14144;DHT22;7152;48.348;10.980;2023-07-09T06:56:05;21.90;99.90
14144;DHT22;7152;48.348;10.980;2023-07-09T06:58:32;21.90;99.90
14144;DHT22;7152;48.348;10.980;2023-07-09T07:01:01;22.00;99.90
14144;DHT22;7152;48.348;10.980;2023-07-09T07:03:30;22.10;99.90
14144;DHT22;7152;48.348;10.980;2023-07-09T07:05:56;22.20;99.90
14144;DHT22;7152;48.348;10.980;2023-07-09T07:08:25;22.30;99.90
14144;DHT22;7152;48.348;10.980;2023-07-09T07:10:55;22.40;99.90
14144;DHT22;7152;48.348;10.980;2023-07-09T07:13:39;22.50;99.90
14144;DHT22;7152;48.348;10.980;2023-07-09T07:16:10;22.70;99.90
14144;DHT22;7152;48.348;10.980;2023-07-09T07:18:36;22.80;99.90
14144;DHT22;7152;48.348;10.980;2023-07-09T07:21:02;23.00;99.90
14144;DHT22;7152;48.348;10.980;2023-07-09T07:23:28;23.10;99.90
14144;DHT22;7152;48.348;10.980;2023-07-09T07:25:54;23.30;99.90
14144;DHT22;7152;48.348;10.980;2023-07-09T07:28:20;23.40;99.90
14144;DHT22;7152;48.348;10.980;2023-07-09T07:30:46;23.50;99.90
14144;DHT22;7152;48.348;10.980;2023-07-09T07:33:15;23.70;99.90
14144;DHT22;7152;48.348;10.980;2023-07-09T07:35:41;23.80;99.90
14144;DHT22;7152;48.348;10.980;2023-07-09T07:38:07;23.90;99.90
14144;DHT22;7152;48.348;10.980;2023-07-09T07:40:33;24.10;99.90
14144;DHT22;7152;48.348;10.980;2023-07-09T07:42:59;24.30;99.90
14144;DHT22;7152;48.348;10.980;2023-07-09T07:45:24;24.40;99.90
14144;DHT22;7152;48.348;10.980;2023-07-09T07:47:50;24.50;99.90
14144;DHT22;7152;48.348;10.980;2023-07-09T07:50:18;24.60;99.90
14144;DHT22;7152;48.348;10.980;2023-07-09T07:52:44;24.80;99.90
14144;DHT22;7152;48.348;10.980;2023-07-09T07:55:10;24.90;99.90
14144;DHT22;7152;48.348;10.980;2023-07-09T07:57:35;25.10;99.90
14144;DHT22;7152;48.348;10.980;2023-07-09T08:00:02;25.20;99.90
14144;DHT22;7152;48.348;10.980;2023-07-09T08:02:38;25.30;99.90
14144;DHT22;7152;48.348;10.980;2023-07-09T08:05:04;25.40;99.90
14144;DHT22;7152;48.348;10.980;2023-07-09T08:07:31;25.60;99.90
14144;DHT22;7152;48.348;10.980;2023-07-09T08:09:57;25.70;99.90
14144;DHT22;7152;48.348;10.980;2023-07-09T08:12:22;25.60;99.90
14144;DHT22;7152;48.348;10.980;2023-07-09T08:14:48;25.60;99.90
14144;DHT22;7152;48.348;10.980;2023-07-09T08:17:14;25.50;99.90
14144;DHT22;7152;48.348;10.980;2023-07-09T08:19:49;25.50;99.90
14144;DHT22;7152;48.348;10.980;2023-07-09T08:22:15;25.50;99.90
14144;DHT22;7152;48.348;10.980;2023-07-09T08:24:42;25.50;99.90
14144;DHT22;7152;48.348;10.980;2023-07-09T08:27:08;25.50;99.90
14144;DHT22;7152;48.348;10.980;2023-07-09T08:29:36;25.50;99.90
14144;DHT22;7152;48.348;10.980;2023-07-09T08:32:03;25.50;99.90
14144;DHT22;7152;48.348;10.980;2023-07-09T08:34:29;25.60;99.90
14144;DHT22;7152;48.348;10.980;2023-07-09T08:36:55;25.60;99.90
14144;DHT22;7152;48.348;10.980;2023-07-09T08:39:21;25.70;99.90
14144;DHT22;7152;48.348;10.980;2023-07-09T08:50:19;26.00;99.90
14144;DHT22;7152;48.348;10.980;2023-07-09T08:52:48;26.00;99.90
14144;DHT22;7152;48.348;10.980;2023-07-09T08:55:20;26.10;99.90
14144;DHT22;7152;48.348;10.980;2023-07-09T08:58:00;26.20;99.90
14144;DHT22;7152;48.348;10.980;2023-07-09T09:06:17;26.50;99.90
14144;DHT22;7152;48.348;10.980;2023-07-09T09:14:05;26.80;99.90
14144;DHT22;7152;48.348;10.980;2023-07-09T09:16:35;26.90;99.90
14144;DHT22;7152;48.348;10.980;2023-07-09T09:19:32;27.00;99.90
14144;DHT22;7152;48.348;10.980;2023-07-09T09:22:01;27.10;99.90
14144;DHT22;7152;48.348;10.980;2023-07-09T09:24:35;27.20;99.90
14144;DHT22;7152;48.348;10.980;2023-07-09T09:27:02;27.30;99.90
14144;DHT22;7152;48.348;10.980;2023-07-09T09:29:28;27.40;99.90
14144;DHT22;7152;48.348;10.980;2023-07-09T09:31:56;27.50;99.90
14144;DHT22;7152;48.348;10.980;2023-07-09T09:34:28;27.60;99.60
14144;DHT22;7152;48.348;10.980;2023-07-09T09:36:55;27.70;99.10
14144;DHT22;7152;48.348;10.980;2023-07-09T09:39:23;27.80;99.10
14144;DHT22;7152;48.348;10.980;2023-07-09T09:41:57;27.90;97.80
14144;DHT22;7152;48.348;10.980;2023-07-09T09:44:27;28.00;98.00
14144;DHT22;7152;48.348;10.980;2023-07-09T09:46:56;28.10;97.30
14144;DHT22;7152;48.348;10.980;2023-07-09T09:49:23;28.20;96.80
14144;DHT22;7152;48.348;10.980;2023-07-09T09:51:49;28.40;96.40
14144;DHT22;7152;48.348;10.980;2023-07-09T09:54:20;28.50;96.50
14144;DHT22;7152;48.348;10.980;2023-07-09T09:56:49;28.60;96.50
14144;DHT22;7152;48.348;10.980;2023-07-09T09:59:36;28.70;96.00
14144;DHT22;7152;48.348;10.980;2023-07-09T10:02:17;28.90;95.60
14144;DHT22;7152;48.348;10.980;2023-07-09T10:04:44;29.10;95.60
14144;DHT22;7152;48.348;10.980;2023-07-09T10:07:30;29.20;95.10
14144;DHT22;7152;48.348;10.980;2023-07-09T10:09:58;29.40;95.00
14144;DHT22;7152;48.348;10.980;2023-07-09T10:12:41;29.50;94.60
14144;DHT22;7152;48.348;10.980;2023-07-09T10:21:06;30.10;92.10
14144;DHT22;7152;48.348;10.980;2023-07-09T10:23:58;30.30;92.50
14144;DHT22;7152;48.348;10.980;2023-07-09T10:26:47;30.50;90.40
14144;DHT22;7152;48.348;10.980;2023-07-09T10:29:24;30.60;88.60
14144;DHT22;7152;48.348;10.980;2023-07-09T10:32:24;30.80;88.50
14144;DHT22;7152;48.348;10.980;2023-07-09T10:35:04;31.00;86.40
14144;DHT22;7152;48.348;10.980;2023-07-09T10:37:54;31.20;86.20
14144;DHT22;7152;48.348;10.980;2023-07-09T10:40:36;31.30;86.00
14144;DHT22;7152;48.348;10.980;2023-07-09T10:43:04;31.60;84.20
14144;DHT22;7152;48.348;10.980;2023-07-09T10:45:40;31.80;85.40
14144;DHT22;7152;48.348;10.980;2023-07-09T10:48:30;32.00;85.40
14144;DHT22;7152;48.348;10.980;2023-07-09T10:50:56;32.30;83.00
14144;DHT22;7152;48.348;10.980;2023-07-09T10:53:37;32.60;83.30
14144;DHT22;7152;48.348;10.980;2023-07-09T10:56:11;32.80;80.00
14144;DHT22;7152;48.348;10.980;2023-07-09T10:58:43;33.10;80.20
14144;DHT22;7152;48.348;10.980;2023-07-09T11:01:13;33.30;79.50
14144;DHT22;7152;48.348;10.980;2023-07-09T11:03:44;33.50;78.30
14144;DHT22;7152;48.348;10.980;2023-07-09T11:08:56;34.00;78.20
14144;DHT22;7152;48.348;10.980;2023-07-09T11:11:37;34.30;75.90
14144;DHT22;7152;48.348;10.980;2023-07-09T11:14:15;34.60;74.40
14144;DHT22;7152;48.348;10.980;2023-07-09T11:16:42;34.80;72.30
14144;DHT22;7152;48.348;10.980;2023-07-09T11:19:18;35.10;70.90
14144;DHT22;7152;48.348;10.980;2023-07-09T11:24:31;35.60;67.60
14144;DHT22;7152;48.348;10.980;2023-07-09T11:26:59;35.90;68.10
14144;DHT22;7152;48.348;10.980;2023-07-09T11:29:26;36.10;67.70
14144;DHT22;7152;48.348;10.980;2023-07-09T11:31:54;36.50;68.10
14144;DHT22;7152;48.348;10.980;2023-07-09T11:34:27;36.90;67.30
14144;DHT22;7152;48.348;10.980;2023-07-09T11:37:01;36.90;65.30
14144;DHT22;7152;48.348;10.980;2023-07-09T11:39:42;37.10;64.90
14144;DHT22;7152;48.348;10.980;2023-07-09T11:42:28;37.20;63.30
14144;DHT22;7152;48.348;10.980;2023-07-09T11:45:11;37.30;61.70
14144;DHT22;7152;48.348;10.980;2023-07-09T11:47:41;37.50;63.40
14144;DHT22;7152;48.348;10.980;2023-07-09T11:50:39;37.80;62.90
14144;DHT22;7152;48.348;10.980;2023-07-09T11:53:38;37.60;61.50
14144;DHT22;7152;48.348;10.980;2023-07-09T11:56:08;37.30;61.60
14144;DHT22;7152;48.348;10.980;2023-07-09T11:58:34;37.50;62.90
14144;DHT22;7152;48.348;10.980;2023-07-09T12:01:00;37.70;63.00
14144;DHT22;7152;48.348;10.980;2023-07-09T12:03:32;37.90;62.40
14144;DHT22;7152;48.348;10.980;2023-07-09T12:06:13;38.10;61.80
14144;DHT22;7152;48.348;10.980;2023-07-09T12:08:42;38.40;61.40
14144;DHT22;7152;48.348;10.980;2023-07-09T12:13:48;38.50;58.90
14144;DHT22;7152;48.348;10.980;2023-07-09T12:16:25;38.70;59.40
14144;DHT22;7152;48.348;10.980;2023-07-09T12:18:52;38.90;58.20
14144;DHT22;7152;48.348;10.980;2023-07-09T12:21:18;38.90;58.80
14144;DHT22;7152;48.348;10.980;2023-07-09T12:23:45;38.90;58.50
14144;DHT22;7152;48.348;10.980;2023-07-09T12:26:17;39.10;58.40
14144;DHT22;7152;48.348;10.980;2023-07-09T12:28:43;39.10;57.40
14144;DHT22;7152;48.348;10.980;2023-07-09T12:31:16;39.20;57.30
14144;DHT22;7152;48.348;10.980;2023-07-09T12:33:49;39.20;55.90
14144;DHT22;7152;48.348;10.980;2023-07-09T12:36:17;39.30;55.40
14144;DHT22;7152;48.348;10.980;2023-07-09T12:38:46;39.50;55.20
14144;DHT22;7152;48.348;10.980;2023-07-09T12:41:28;39.70;55.40
14144;DHT22;7152;48.348;10.980;2023-07-09T12:43:56;39.90;53.70
14144;DHT22;7152;48.348;10.980;2023-07-09T12:46:23;40.20;54.60
14144;DHT22;7152;48.348;10.980;2023-07-09T12:48:49;40.50;54.40
14144;DHT22;7152;48.348;10.980;2023-07-09T12:51:23;40.50;54.10
14144;DHT22;7152;48.348;10.980;2023-07-09T12:54:16;40.70;53.20
14144;DHT22;7152;48.348;10.980;2023-07-09T12:56:42;40.80;51.90
14144;DHT22;7152;48.348;10.980;2023-07-09T12:59:20;40.90;52.90
14144;DHT22;7152;48.348;10.980;2023-07-09T13:04:33;41.20;52.00
14144;DHT22;7152;48.348;10.980;2023-07-09T13:07:00;41.30;51.90
14144;DHT22;7152;48.348;10.980;2023-07-09T13:09:27;41.40;51.90
14144;DHT22;7152;48.348;10.980;2023-07-09T13:11:54;41.50;52.00
14144;DHT22;7152;48.348;10.980;2023-07-09T13:14:23;41.70;51.20
14144;DHT22;7152;48.348;10.980;2023-07-09T13:16:50;41.80;51.10
14144;DHT22;7152;48.348;10.980;2023-07-09T13:19:17;42.10;51.40
14144;DHT22;7152;48.348;10.980;2023-07-09T13:21:43;42.40;50.90
14144;DHT22;7152;48.348;10.980;2023-07-09T13:24:29;42.60;50.00
14144;DHT22;7152;48.348;10.980;2023-07-09T13:26:56;42.80;49.00
14144;DHT22;7152;48.348;10.980;2023-07-09T13:29:25;42.80;49.60
14144;DHT22;7152;48.348;10.980;2023-07-09T13:31:51;42.80;48.80
14144;DHT22;7152;48.348;10.980;2023-07-09T13:34:20;42.70;48.00
14144;DHT22;7152;48.348;10.980;2023-07-09T13:36:47;42.80;48.30
14144;DHT22;7152;48.348;10.980;2023-07-09T13:39:14;42.60;47.90
14144;DHT22;7152;48.348;10.980;2023-07-09T13:41:43;42.80;48.40
14144;DHT22;7152;48.348;10.980;2023-07-09T13:44:15;42.80;47.50
14144;DHT22;7152;48.348;10.980;2023-07-09T13:46:42;42.90;47.20
14144;DHT22;7152;48.348;10.980;2023-07-09T13:49:16;42.80;47.20
14144;DHT22;7152;48.348;10.980;2023-07-09T13:51:45;43.00;46.10
14144;DHT22;7152;48.348;10.980;2023-07-09T13:54:18;43.00;47.20
14144;DHT22;7152;48.348;10.980;2023-07-09T13:56:45;43.00;45.70
14144;DHT22;7152;48.348;10.980;2023-07-09T13:59:16;43.00;45.60
14144;DHT22;7152;48.348;10.980;2023-07-09T14:01:43;42.60;45.30
14144;DHT22;7152;48.348;10.980;2023-07-09T14:04:14;42.60;45.70
14144;DHT22;7152;48.348;10.980;2023-07-09T14:06:40;42.80;45.20
14144;DHT22;7152;48.348;10.980;2023-07-09T14:09:09;42.80;44.90
14144;DHT22;7152;48.348;10.980;2023-07-09T14:11:39;42.80;44.70
14144;DHT22;7152;48.348;10.980;2023-07-09T14:14:22;42.80;45.40
14144;DHT22;7152;48.348;10.980;2023-07-09T14:16:50;42.80;45.60
14144;DHT22;7152;48.348;10.980;2023-07-09T14:19:20;42.90;46.00
14144;DHT22;7152;48.348;10.980;2023-07-09T14:21:47;43.10;46.00
14144;DHT22;7152;48.348;10.980;2023-07-09T14:26:42;43.10;45.80
14144;DHT22;7152;48.348;10.980;2023-07-09T14:29:08;43.30;45.40
14144;DHT22;7152;48.348;10.980;2023-07-09T14:31:36;43.40;44.90
14144;DHT22;7152;48.348;10.980;2023-07-09T14:36:50;43.50;45.20
14144;DHT22;7152;48.348;10.980;2023-07-09T14:39:16;43.50;44.70
14144;DHT22;7152;48.348;10.980;2023-07-09T14:41:42;43.50;44.40
14144;DHT22;7152;48.348;10.980;2023-07-09T14:44:30;43.50;44.30
14144;DHT22;7152;48.348;10.980;2023-07-09T14:46:59;43.70;43.50
14144;DHT22;7152;48.348;10.980;2023-07-09T14:49:26;43.60;43.60
14144;DHT22;7152;48.348;10.980;2023-07-09T14:51:52;43.80;43.10
14144;DHT22;7152;48.348;10.980;2023-07-09T14:54:25;43.90;42.50
14144;DHT22;7152;48.348;10.980;2023-07-09T14:56:53;44.10;42.90
14144;DHT22;7152;48.348;10.980;2023-07-09T14:59:19;43.90;42.10
14144;DHT22;7152;48.348;10.980;2023-07-09T15:01:45;43.50;41.80
14144;DHT22;7152;48.348;10.980;2023-07-09T15:06:51;43.90;43.10
14144;DHT22;7152;48.348;10.980;2023-07-09T15:09:23;43.90;42.70
14144;DHT22;7152;48.348;10.980;2023-07-09T15:11:56;44.10;43.00
14144;DHT22;7152;48.348;10.980;2023-07-09T15:14:23;44.20;43.00
14144;DHT22;7152;48.348;10.980;2023-07-09T15:16:49;44.10;42.30
14144;DHT22;7152;48.348;10.980;2023-07-09T15:19:18;44.20;43.30
14144;DHT22;7152;48.348;10.980;2023-07-09T15:21:45;43.90;43.20
14144;DHT22;7152;48.348;10.980;2023-07-09T15:24:20;44.00;42.50
14144;DHT22;7152;48.348;10.980;2023-07-09T15:26:52;44.10;42.00
14144;DHT22;7152;48.348;10.980;2023-07-09T15:29:19;44.00;42.20
14144;DHT22;7152;48.348;10.980;2023-07-09T15:31:45;44.00;42.10
14144;DHT22;7152;48.348;10.980;2023-07-09T15:34:11;44.30;41.90
14144;DHT22;7152;48.348;10.980;2023-07-09T15:36:38;44.70;41.80
14144;DHT22;7152;48.348;10.980;2023-07-09T15:39:04;45.20;41.50
14144;DHT22;7152;48.348;10.980;2023-07-09T15:41:29;45.50;40.70
14144;DHT22;7152;48.348;10.980;2023-07-09T15:43:55;45.80;40.80
14144;DHT22;7152;48.348;10.980;2023-07-09T15:46:22;45.90;40.80
14144;DHT22;7152;48.348;10.980;2023-07-09T15:48:50;46.10;40.50
14144;DHT22;7152;48.348;10.980;2023-07-09T15:51:16;46.10;40.60
14144;DHT22;7152;48.348;10.980;2023-07-09T15:53:42;45.90;40.70
14144;DHT22;7152;48.348;10.980;2023-07-09T15:58:49;45.50;39.80
14144;DHT22;7152;48.348;10.980;2023-07-09T16:01:17;45.00;40.10
14144;DHT22;7152;48.348;10.980;2023-07-09T16:03:47;44.80;40.70
14144;DHT22;7152;48.348;10.980;2023-07-09T16:06:14;44.70;40.90
14144;DHT22;7152;48.348;10.980;2023-07-09T16:08:40;44.80;41.20
14144;DHT22;7152;48.348;10.980;2023-07-09T16:11:21;44.70;41.30
14144;DHT22;7152;48.348;10.980;2023-07-09T16:13:48;44.30;41.90
14144;DHT22;7152;48.348;10.980;2023-07-09T16:16:20;44.00;41.90
14144;DHT22;7152;48.348;10.980;2023-07-09T16:18:46;44.10;41.60
14144;DHT22;7152;48.348;10.980;2023-07-09T16:21:25;44.50;41.50
14144;DHT22;7152;48.348;10.980;2023-07-09T16:23:53;44.90;41.30
14144;DHT22;7152;48.348;10.980;2023-07-09T16:26:19;45.30;40.10
14144;DHT22;7152;48.348;10.980;2023-07-09T16:28:47;45.60;38.70
14144;DHT22;7152;48.348;10.980;2023-07-09T16:31:13;45.70;37.90
14144;DHT22;7152;48.348;10.980;2023-07-09T16:33:39;45.90;38.90